Time;durP1;ratioP1;P1;durP2;ratioP2;P2;SDS_P1;SDS_P2;PMS_P1;PMS_P2;Temp;Humidity;BMP_temperature;BMP_pressure;BME280_temperature;BME280_humidity;BME280_pressure;Samples;Min_cycle;Max_cycle;Signal;HPM_P1;HPM_P2
2022/09/27 00:01:11;;;;;;;0.00;0.00;;;10.50;99.90;;;;;;5053198;28;20135;-82
2022/09/27 00:03:37;;;;;;;0.00;0.00;;;10.50;99.90;;;;;;5035773;28;20063;-81
2022/09/27 00:06:12;;;;;;;0.00;0.00;;;10.50;99.90;;;;;;5036935;28;20374;-82
2022/09/27 00:08:38;;;;;;;0.00;0.00;;;10.50;99.90;;;;;;5053048;28;20493;-82
2022/09/27 00:11:19;;;;;;;0.00;0.00;;;10.40;99.90;;;;;;5053046;28;20056;-81
2022/09/27 00:13:44;;;;;;;0.00;0.00;;;10.40;99.90;;;;;;5053133;28;20389;-81
2022/09/27 00:16:10;;;;;;;0.00;0.00;;;10.40;99.90;;;;;;5037075;28;20056;-82
2022/09/27 00:18:36;;;;;;;0.00;0.00;;;10.40;99.90;;;;;;5052884;28;20481;-82
2022/09/27 00:21:07;;;;;;;0.00;0.00;;;10.50;99.90;;;;;;5053042;28;20056;-82
2022/09/27 00:23:33;;;;;;;0.00;0.00;;;10.40;99.90;;;;;;5036176;28;20041;-81
2022/09/27 00:25:59;;;;;;;0.00;0.00;;;10.30;99.90;;;;;;5053510;28;20044;-81
2022/09/27 00:28:25;;;;;;;0.00;0.00;;;10.30;99.90;;;;;;5036679;28;20057;-81
2022/09/27 00:30:52;;;;;;;0.00;0.00;;;10.30;99.90;;;;;;5037994;28;20045;-81
2022/09/27 00:33:18;;;;;;;0.00;0.00;;;10.20;99.90;;;;;;5057070;28;20044;-82
2022/09/27 00:35:45;;;;;;;0.00;0.00;;;10.20;99.90;;;;;;5057098;28;20083;-81
2022/09/27 00:38:11;;;;;;;0.00;0.00;;;10.10;99.90;;;;;;5039969;28;20501;-82
2022/09/27 00:40:37;;;;;;;0.00;0.00;;;10.10;99.90;;;;;;5056977;28;20057;-81
2022/09/27 00:43:16;;;;;;;0.00;0.00;;;10.10;99.90;;;;;;5056376;28;20436;-81
2022/09/27 00:45:43;;;;;;;0.15;0.15;;;10.00;99.90;;;;;;5056974;28;20080;-82
2022/09/27 00:48:14;;;;;;;0.00;0.00;;;10.00;99.90;;;;;;5040689;28;20144;-81
2022/09/27 00:50:46;;;;;;;0.00;0.00;;;9.90;99.90;;;;;;5040800;28;20115;-81
2022/09/27 00:53:18;;;;;;;0.00;0.00;;;9.90;99.90;;;;;;5057019;28;20124;-81
2022/09/27 00:55:56;;;;;;;0.00;0.00;;;9.90;99.90;;;;;;5039837;28;20053;-81
2022/09/27 00:58:51;;;;;;;0.00;0.00;;;9.90;99.90;;;;;;5056896;28;20045;-81
2022/09/27 01:01:17;;;;;;;0.00;0.00;;;9.90;99.90;;;;;;5036646;28;20061;-81
2022/09/27 01:04:07;;;;;;;0.00;0.00;;;9.80;99.90;;;;;;5056076;28;20388;-81
2022/09/27 01:06:32;;;;;;;0.00;0.00;;;9.70;99.90;;;;;;5057110;28;20045;-82
2022/09/27 01:08:58;;;;;;;0.03;0.00;;;9.70;99.90;;;;;;5056747;28;20190;-81
2022/09/27 01:11:31;;;;;;;0.20;0.20;;;9.70;99.90;;;;;;5056385;28;20370;-81
2022/09/27 01:14:19;;;;;;;0.00;0.00;;;9.60;99.90;;;;;;5039777;28;20041;-81
2022/09/27 01:17:09;;;;;;;0.00;0.00;;;9.60;99.90;;;;;;5055935;28;20481;-81
2022/09/27 01:19:54;;;;;;;0.00;0.00;;;9.60;99.90;;;;;;5054709;28;20455;-81
2022/09/27 01:22:29;;;;;;;0.00;0.00;;;9.60;99.90;;;;;;5054657;28;20052;-81
2022/09/27 01:25:16;;;;;;;0.00;0.00;;;9.60;99.90;;;;;;5039341;28;20346;-81
2022/09/27 01:27:56;;;;;;;0.00;0.00;;;9.60;99.90;;;;;;5039772;28;20053;-81
2022/09/27 01:30:30;;;;;;;0.00;0.00;;;9.60;99.90;;;;;;5039471;28;20037;-81
2022/09/27 01:33:27;;;;;;;0.00;0.00;;;9.60;99.90;;;;;;5055527;28;20045;-81
2022/09/27 01:36:26;;;;;;;0.00;0.00;;;9.50;99.90;;;;;;5039260;28;20405;-81
2022/09/27 01:39:13;;;;;;;0.00;0.00;;;9.50;99.90;;;;;;5055935;28;20071;-81
2022/09/27 01:42:00;;;;;;;0.00;0.00;;;9.50;99.90;;;;;;5038213;28;20053;-81
2022/09/27 01:44:43;;;;;;;0.00;0.00;;;9.50;99.90;;;;;;5055732;28;20059;-81
2022/09/27 01:47:22;;;;;;;0.00;0.00;;;9.50;99.90;;;;;;5038937;28;20065;-81
2022/09/27 01:49:58;;;;;;;0.00;0.00;;;9.50;99.90;;;;;;5038760;28;20048;-81
2022/09/27 01:52:32;;;;;;;0.30;0.30;;;9.50;99.90;;;;;;5056009;28;20045;-81
2022/09/27 01:55:01;;;;;;;0.00;0.00;;;9.60;99.90;;;;;;5056204;28;20045;-81
2022/09/27 01:57:34;;;;;;;0.00;0.00;;;9.60;99.90;;;;;;5038729;28;20511;-81
2022/09/27 02:00:07;;;;;;;0.00;0.00;;;9.60;99.90;;;;;;5039219;28;20070;-81
2022/09/27 02:02:41;;;;;;;0.00;0.00;;;9.60;99.90;;;;;;5055627;28;20087;-81
2022/09/27 02:05:08;;;;;;;0.00;0.00;;;9.60;99.90;;;;;;5038936;28;20524;-81
2022/09/27 02:07:42;;;;;;;0.00;0.00;;;9.60;99.90;;;;;;5055242;28;20066;-81
2022/09/27 02:10:21;;;;;;;0.00;0.00;;;9.60;99.90;;;;;;5055437;28;20074;-81
2022/09/27 02:13:01;;;;;;;0.80;0.45;;;9.70;99.90;;;;;;5038999;28;20100;-81
2022/09/27 02:15:34;;;;;;;0.00;0.00;;;9.70;99.90;;;;;;5039077;28;20144;-81
2022/09/27 02:18:07;;;;;;;0.00;0.00;;;9.60;99.90;;;;;;5055183;28;20045;-81
2022/09/27 02:20:39;;;;;;;0.00;0.00;;;9.60;99.90;;;;;;5054997;28;20052;-81
2022/09/27 02:23:34;;;;;;;0.00;0.00;;;9.60;99.90;;;;;;5055319;28;20470;-81
2022/09/27 02:26:07;;;;;;;0.00;0.00;;;9.60;99.90;;;;;;5055347;28;20095;-81
2022/09/27 02:28:50;;;;;;;0.00;0.00;;;9.60;99.90;;;;;;5038545;28;20087;-81
2022/09/27 02:31:16;;;;;;;3.72;1.75;;;9.60;99.90;;;;;;5038474;28;20358;-81
2022/09/27 02:33:44;;;;;;;0.00;0.00;;;9.50;99.90;;;;;;5054715;28;20052;-81
2022/09/27 02:36:10;;;;;;;0.00;0.00;;;9.60;99.90;;;;;;5038035;28;20118;-81
2022/09/27 02:38:36;;;;;;;0.00;0.00;;;9.50;99.90;;;;;;5055156;28;20044;-81
2022/09/27 02:41:02;;;;;;;0.00;0.00;;;9.50;99.90;;;;;;5037530;28;20052;-81
2022/09/27 02:43:32;;;;;;;0.52;0.52;;;9.50;99.90;;;;;;5037393;28;20060;-81
2022/09/27 02:46:14;;;;;;;4.88;0.82;;;9.50;99.90;;;;;;5054041;28;20493;-81
2022/09/27 02:48:52;;;;;;;0.00;0.00;;;9.50;99.90;;;;;;5055045;28;20041;-82
2022/09/27 02:51:33;;;;;;;0.00;0.00;;;9.50;99.90;;;;;;5054591;28;20041;-81
2022/09/27 02:54:17;;;;;;;0.00;0.00;;;9.50;99.90;;;;;;5054455;28;20041;-81
2022/09/27 02:57:10;;;;;;;0.00;0.00;;;9.50;99.90;;;;;;5054722;28;20057;-81
2022/09/27 03:00:08;;;;;;;0.00;0.00;;;9.50;99.90;;;;;;5054763;28;20107;-81
2022/09/27 03:02:48;;;;;;;0.00;0.00;;;9.40;99.90;;;;;;5054012;28;20123;-81
2022/09/27 03:05:21;;;;;;;0.00;0.00;;;9.40;99.90;;;;;;5038184;28;20052;-81
2022/09/27 03:07:48;;;;;;;0.00;0.00;;;9.40;99.90;;;;;;5055084;28;20053;-81
2022/09/27 03:10:19;;;;;;;0.00;0.00;;;9.50;99.90;;;;;;5037475;28;20118;-81
2022/09/27 03:12:45;;;;;;;0.00;0.00;;;9.40;99.90;;;;;;5037268;28;20047;-81
2022/09/27 03:15:11;;;;;;;0.05;0.00;;;9.40;99.90;;;;;;5054205;28;20045;-81
2022/09/27 03:17:36;;;;;;;0.00;0.00;;;9.30;99.90;;;;;;5037551;28;20045;-81
2022/09/27 03:20:02;;;;;;;0.00;0.00;;;9.30;99.90;;;;;;5037545;28;20123;-81
2022/09/27 03:22:28;;;;;;;0.00;0.00;;;9.30;99.90;;;;;;5037086;28;20523;-81
2022/09/27 03:24:54;;;;;;;0.00;0.00;;;9.30;99.90;;;;;;5053809;28;20138;-81
2022/09/27 03:27:19;;;;;;;0.00;0.00;;;9.20;99.90;;;;;;5037319;28;20148;-81
2022/09/27 03:29:45;;;;;;;0.00;0.00;;;9.20;99.90;;;;;;5053442;28;20037;-81
2022/09/27 03:32:10;;;;;;;0.00;0.00;;;9.30;99.90;;;;;;5037230;28;20057;-81
2022/09/27 03:34:36;;;;;;;0.00;0.00;;;9.20;99.90;;;;;;5037416;28;20051;-81
2022/09/27 03:37:02;;;;;;;0.00;0.00;;;9.20;99.90;;;;;;5037635;28;20096;-81
2022/09/27 03:39:28;;;;;;;0.17;0.17;;;9.20;99.90;;;;;;5053638;28;20123;-81
2022/09/27 03:41:53;;;;;;;0.00;0.00;;;9.20;99.90;;;;;;5053386;28;20393;-81
2022/09/27 03:44:19;;;;;;;0.00;0.00;;;9.10;99.90;;;;;;5036987;28;20190;-81
2022/09/27 03:46:44;;;;;;;0.00;0.00;;;9.10;99.90;;;;;;5053050;28;20064;-81
2022/09/27 03:49:10;;;;;;;0.00;0.00;;;9.00;99.90;;;;;;5054077;28;20076;-81
2022/09/27 03:51:36;;;;;;;0.98;0.40;;;9.00;99.90;;;;;;5053333;28;20139;-81
2022/09/27 03:54:01;;;;;;;0.00;0.00;;;9.00;99.90;;;;;;5054099;28;20051;-81
2022/09/27 03:56:27;;;;;;;0.00;0.00;;;9.00;99.90;;;;;;5037055;28;20041;-81
2022/09/27 03:58:53;;;;;;;0.00;0.00;;;9.00;99.90;;;;;;5036709;28;20139;-81
2022/09/27 04:01:18;;;;;;;0.00;0.00;;;8.90;99.90;;;;;;5037378;28;20504;-81
2022/09/27 04:03:44;;;;;;;0.00;0.00;;;8.90;99.90;;;;;;5053814;28;20041;-81
2022/09/27 04:06:10;;;;;;;0.00;0.00;;;8.90;99.90;;;;;;5036752;28;20459;-81
2022/09/27 04:08:36;;;;;;;0.00;0.00;;;8.90;99.90;;;;;;5053520;28;20133;-81
2022/09/27 04:11:02;;;;;;;0.00;0.00;;;8.90;99.90;;;;;;5053431;28;20045;-81
2022/09/27 04:13:28;;;;;;;0.00;0.00;;;8.90;99.90;;;;;;5036987;28;20063;-81
2022/09/27 04:15:54;;;;;;;0.00;0.00;;;8.90;99.90;;;;;;5054165;28;20049;-81
2022/09/27 04:18:19;;;;;;;0.00;0.00;;;8.90;99.90;;;;;;5053338;28;20122;-81
2022/09/27 04:20:45;;;;;;;0.00;0.00;;;8.90;99.90;;;;;;5036945;28;20056;-82
2022/09/27 04:23:11;;;;;;;0.00;0.00;;;8.90;99.90;;;;;;5053240;28;20128;-81
2022/09/27 04:25:38;;;;;;;0.00;0.00;;;8.90;99.90;;;;;;5037262;28;20114;-81
2022/09/27 04:28:05;;;;;;;0.00;0.00;;;8.80;99.90;;;;;;5036623;28;20055;-81
2022/09/27 04:30:31;;;;;;;0.00;0.00;;;8.80;99.90;;;;;;5036803;28;20061;-81
2022/09/27 04:32:56;;;;;;;0.00;0.00;;;8.80;99.90;;;;;;5052703;28;20492;-81
2022/09/27 04:38:06;;;;;;;0.00;0.00;;;8.80;99.90;;;;;;5052967;28;20374;-81
2022/09/27 04:40:35;;;;;;;0.00;0.00;;;8.80;99.90;;;;;;5036091;28;20059;-81
2022/09/27 04:43:02;;;;;;;0.00;0.00;;;8.80;99.90;;;;;;5036673;28;20132;-82
2022/09/27 04:45:28;;;;;;;0.00;0.00;;;8.80;99.90;;;;;;5053474;28;20111;-81
2022/09/27 04:47:54;;;;;;;0.00;0.00;;;8.80;99.90;;;;;;5036383;28;20488;-81
2022/09/27 04:50:19;;;;;;;0.00;0.00;;;8.80;99.90;;;;;;5052869;28;20045;-81
2022/09/27 04:52:54;;;;;;;0.00;0.00;;;8.80;99.90;;;;;;5052746;28;20098;-81
2022/09/27 04:55:21;;;;;;;0.00;0.00;;;8.80;99.90;;;;;;5052524;28;20485;-81
2022/09/27 04:57:47;;;;;;;0.00;0.00;;;8.80;99.90;;;;;;5052791;28;20481;-81
2022/09/27 05:00:14;;;;;;;0.00;0.00;;;8.70;99.90;;;;;;5052819;28;20049;-81
2022/09/27 05:02:47;;;;;;;0.00;0.00;;;8.80;99.90;;;;;;5052751;28;20048;-81
2022/09/27 05:05:13;;;;;;;0.00;0.00;;;8.80;99.90;;;;;;5036358;28;20187;-81
2022/09/27 05:07:39;;;;;;;0.00;0.00;;;8.70;99.90;;;;;;5052309;28;20396;-81
2022/09/27 05:10:06;;;;;;;0.00;0.00;;;8.70;99.90;;;;;;5053267;28;20052;-81
2022/09/27 05:12:31;;;;;;;0.00;0.00;;;8.70;99.90;;;;;;5052760;28;20060;-81
2022/09/27 05:14:57;;;;;;;0.00;0.00;;;8.70;99.90;;;;;;5036260;28;20052;-81
2022/09/27 05:17:23;;;;;;;0.00;0.00;;;8.70;99.90;;;;;;5036947;28;20385;-81
2022/09/27 05:19:49;;;;;;;0.00;0.00;;;8.70;99.90;;;;;;5056491;28;20091;-81
2022/09/27 05:22:15;;;;;;;0.00;0.00;;;8.60;99.90;;;;;;5056019;28;20045;-81
2022/09/27 05:24:40;;;;;;;0.00;0.00;;;8.70;99.90;;;;;;5039567;28;20461;-81
2022/09/27 05:27:10;;;;;;;0.00;0.00;;;8.70;99.90;;;;;;5056030;28;20041;-81
2022/09/27 05:29:36;;;;;;;0.00;0.00;;;8.60;99.90;;;;;;5056291;28;20139;-81
2022/09/27 05:32:02;;;;;;;0.00;0.00;;;8.60;99.90;;;;;;5055621;28;20102;-81
2022/09/27 05:34:30;;;;;;;0.00;0.00;;;8.60;99.90;;;;;;5039690;28;20502;-81
2022/09/27 05:36:55;;;;;;;5.15;0.70;;;8.60;99.90;;;;;;5055826;28;20053;-81
2022/09/27 05:39:21;;;;;;;0.00;0.00;;;8.60;99.90;;;;;;5056524;28;20433;-81
2022/09/27 05:41:49;;;;;;;0.00;0.00;;;8.60;99.90;;;;;;5055494;28;20132;-82
2022/09/27 05:44:15;;;;;;;0.00;0.00;;;8.60;99.90;;;;;;5039216;28;20599;-81
2022/09/27 05:46:41;;;;;;;0.00;0.00;;;8.50;99.90;;;;;;5039044;28;20049;-81
2022/09/27 05:49:07;;;;;;;0.00;0.00;;;8.50;99.90;;;;;;5039019;28;20102;-81
2022/09/27 05:51:33;;;;;;;0.47;0.00;;;8.50;99.90;;;;;;5055731;28;20134;-81
2022/09/27 05:53:59;;;;;;;0.00;0.00;;;8.50;99.90;;;;;;5055720;28;20104;-81
2022/09/27 05:56:24;;;;;;;0.00;0.00;;;8.50;99.90;;;;;;5038697;28;20489;-81
2022/09/27 05:58:50;;;;;;;0.00;0.00;;;8.60;99.90;;;;;;5039253;28;20159;-81
2022/09/27 06:01:17;;;;;;;0.00;0.00;;;8.50;99.90;;;;;;5055290;28;20051;-81
2022/09/27 06:03:43;;;;;;;0.00;0.00;;;8.50;99.90;;;;;;5055153;28;20099;-81
2022/09/27 06:06:09;;;;;;;0.00;0.00;;;8.40;99.90;;;;;;5055646;28;20053;-81
2022/09/27 06:08:39;;;;;;;0.00;0.00;;;8.40;99.90;;;;;;5038678;28;20392;-81
2022/09/27 06:11:07;;;;;;;0.00;0.00;;;8.40;99.90;;;;;;5054789;28;20045;-81
2022/09/27 06:13:35;;;;;;;0.00;0.00;;;8.40;99.90;;;;;;5038682;28;20048;-81
2022/09/27 06:16:02;;;;;;;0.00;0.00;;;8.40;99.90;;;;;;5038830;28;20057;-81
2022/09/27 06:18:27;;;;;;;0.00;0.00;;;8.40;99.90;;;;;;5055174;28;20114;-81
2022/09/27 06:20:54;;;;;;;0.00;0.00;;;8.40;99.90;;;;;;5055017;28;20044;-81
2022/09/27 06:23:21;;;;;;;0.20;0.00;;;8.40;99.90;;;;;;5038524;28;20060;-81
2022/09/27 06:25:48;;;;;;;0.00;0.00;;;8.40;99.90;;;;;;5038237;28;20056;-81
2022/09/27 06:28:17;;;;;;;0.00;0.00;;;8.40;99.90;;;;;;5054339;28;20053;-81
2022/09/27 06:30:44;;;;;;;0.00;0.00;;;8.40;99.90;;;;;;5038357;28;20123;-81
2022/09/27 06:33:13;;;;;;;0.00;0.00;;;8.50;99.90;;;;;;5037991;28;20033;-81
2022/09/27 06:35:40;;;;;;;0.00;0.00;;;8.50;99.90;;;;;;5054828;28;20548;-81
2022/09/27 06:38:09;;;;;;;0.00;0.00;;;8.50;99.90;;;;;;5038102;28;20051;-81
2022/09/27 06:40:35;;;;;;;0.00;0.00;;;8.50;99.90;;;;;;5037215;28;20065;-81
2022/09/27 06:43:06;;;;;;;0.00;0.00;;;8.60;99.90;;;;;;5054241;28;20053;-81
2022/09/27 06:45:34;;;;;;;0.00;0.00;;;8.60;99.90;;;;;;5054192;28;20388;-81
2022/09/27 06:48:01;;;;;;;0.00;0.00;;;8.60;99.90;;;;;;5054796;28;20052;-81
2022/09/27 06:50:28;;;;;;;0.00;0.00;;;8.60;99.90;;;;;;5054294;28;20400;-81
2022/09/27 06:52:54;;;;;;;0.00;0.00;;;8.70;99.90;;;;;;5054481;28;20102;-81
2022/09/27 06:55:20;;;;;;;0.00;0.00;;;8.70;99.90;;;;;;5054162;28;20127;-80
2022/09/27 07:00:30;;;;;;;0.00;0.00;;;8.80;99.90;;;;;;5054315;28;20076;-80
2022/09/27 07:02:59;;;;;;;0.00;0.00;;;8.90;99.90;;;;;;5054141;28;20061;-81
2022/09/27 07:05:29;;;;;;;0.00;0.00;;;9.00;99.90;;;;;;5037618;28;20051;-81
2022/09/27 07:07:58;;;;;;;0.00;0.00;;;9.10;99.90;;;;;;5053914;28;20037;-81
2022/09/27 07:10:29;;;;;;;0.00;0.00;;;9.10;99.90;;;;;;5037652;28;20048;-81
2022/09/27 07:12:55;;;;;;;0.00;0.00;;;9.10;99.90;;;;;;5059395;28;20064;-81
2022/09/27 07:15:22;;;;;;;0.08;0.08;;;9.30;99.90;;;;;;5037494;28;20044;-81
2022/09/27 07:17:58;;;;;;;4.78;0.65;;;9.30;99.90;;;;;;5037321;28;20060;-80
2022/09/27 07:20:25;;;;;;;0.00;0.00;;;9.40;99.90;;;;;;5053762;28;20045;-80
2022/09/27 07:22:51;;;;;;;0.00;0.00;;;9.40;99.90;;;;;;5037137;28;20053;-80
2022/09/27 07:25:17;;;;;;;0.00;0.00;;;9.60;99.90;;;;;;5037121;28;20419;-80
2022/09/27 07:27:42;;;;;;;0.00;0.00;;;9.80;99.90;;;;;;5037208;28;20080;-80
2022/09/27 07:30:09;;;;;;;0.00;0.00;;;10.10;99.90;;;;;;5053552;28;20603;-80
2022/09/27 07:32:35;;;;;;;0.00;0.00;;;10.20;99.90;;;;;;5037060;28;20051;-80
2022/09/27 07:35:03;;;;;;;0.00;0.00;;;10.30;99.90;;;;;;5036956;28;20053;-80
2022/09/27 07:37:34;;;;;;;0.00;0.00;;;10.40;99.90;;;;;;5037497;28;20131;-81
2022/09/27 07:40:01;;;;;;;0.00;0.00;;;10.50;99.90;;;;;;5036398;28;20501;-80
2022/09/27 07:42:27;;;;;;;0.00;0.00;;;10.50;99.90;;;;;;5037850;28;20045;-81
2022/09/27 07:44:56;;;;;;;0.00;0.00;;;10.50;99.90;;;;;;5054126;28;20045;-81
2022/09/27 07:47:23;;;;;;;0.00;0.00;;;10.60;99.90;;;;;;5037242;28;20052;-81
2022/09/27 07:49:52;;;;;;;0.00;0.00;;;10.70;99.90;;;;;;5053434;28;20390;-81
2022/09/27 07:52:19;;;;;;;0.00;0.00;;;10.70;99.90;;;;;;5053412;28;20080;-81
2022/09/27 07:54:45;;;;;;;0.00;0.00;;;10.70;99.90;;;;;;5053674;28;20477;-82
2022/09/27 07:57:11;;;;;;;0.00;0.00;;;10.80;99.90;;;;;;5037302;28;20049;-82
2022/09/27 07:59:36;;;;;;;0.20;0.20;;;10.80;99.90;;;;;;5053448;28;20037;-82
2022/09/27 08:02:02;;;;;;;0.00;0.00;;;10.90;99.90;;;;;;5053215;28;20041;-82
2022/09/27 08:04:28;;;;;;;0.00;0.00;;;10.90;99.90;;;;;;5052567;28;20099;-82
2022/09/27 08:06:54;;;;;;;0.00;0.00;;;11.00;99.90;;;;;;5036428;28;20053;-81
2022/09/27 08:09:20;;;;;;;0.00;0.00;;;11.00;99.90;;;;;;5053278;28;20049;-82
2022/09/27 08:11:45;;;;;;;0.00;0.00;;;10.90;99.90;;;;;;5036927;28;20071;-82
2022/09/27 08:14:11;;;;;;;0.00;0.00;;;10.90;99.90;;;;;;5036754;28;20045;-82
2022/09/27 08:16:37;;;;;;;0.00;0.00;;;10.90;99.90;;;;;;5052984;28;20126;-81
2022/09/27 08:19:03;;;;;;;0.00;0.00;;;10.70;99.90;;;;;;5036565;28;20091;-82
2022/09/27 08:21:29;;;;;;;0.00;0.00;;;10.70;99.90;;;;;;5052727;28;20484;-81
2022/09/27 08:23:55;;;;;;;0.00;0.00;;;10.70;99.90;;;;;;5035701;28;20045;-83
2022/09/27 08:26:21;;;;;;;0.00;0.00;;;10.70;99.90;;;;;;5036458;28;20099;-82
2022/09/27 08:28:48;;;;;;;0.00;0.00;;;10.70;99.90;;;;;;5036750;28;20107;-82
2022/09/27 08:31:13;;;;;;;0.00;0.00;;;10.70;99.90;;;;;;5053787;28;20045;-83
2022/09/27 08:33:39;;;;;;;0.00;0.00;;;10.70;99.90;;;;;;5052828;28;20044;-82
2022/09/27 08:36:11;;;;;;;0.00;0.00;;;10.70;99.90;;;;;;5052816;28;20048;-83
2022/09/27 08:38:36;;;;;;;0.00;0.00;;;10.90;99.90;;;;;;5036813;28;20045;-83
2022/09/27 08:41:32;;;;;;;0.00;0.00;;;11.00;99.90;;;;;;5035863;28;20409;-83
2022/09/27 08:44:16;;;;;;;0.00;0.00;;;11.10;99.90;;;;;;5035844;28;20102;-83
2022/09/27 08:47:10;;;;;;;0.00;0.00;;;11.20;99.90;;;;;;5037144;28;20053;-83
2022/09/27 08:49:48;;;;;;;0.00;0.00;;;11.20;99.90;;;;;;5036257;28;20503;-83
2022/09/27 08:52:26;;;;;;;0.00;0.00;;;11.40;99.90;;;;;;5054611;28;20041;-84
2022/09/27 08:54:54;;;;;;;3.10;0.60;;;11.50;99.90;;;;;;5056366;28;20048;-83
2022/09/27 08:57:22;;;;;;;0.00;0.00;;;11.60;99.90;;;;;;5040101;28;20045;-83
2022/09/27 09:00:04;;;;;;;0.00;0.00;;;11.50;99.90;;;;;;5039771;28;20063;-83
2022/09/27 09:02:30;;;;;;;0.00;0.00;;;11.50;99.90;;;;;;5039661;28;20560;-83
2022/09/27 09:05:05;;;;;;;0.00;0.00;;;11.50;99.90;;;;;;5039831;28;20136;-83
2022/09/27 09:07:53;;;;;;;0.10;0.10;;;11.50;99.90;;;;;;5039560;28;20049;-84
2022/09/27 09:13:43;;;;;;;0.00;0.00;;;11.50;99.90;;;;;;5056283;28;20052;-83
2022/09/27 09:16:45;;;;;;;0.00;0.00;;;11.40;99.90;;;;;;5039601;28;20095;-83
2022/09/27 09:19:38;;;;;;;0.00;0.00;;;11.30;99.90;;;;;;5041379;28;20044;-83
2022/09/27 09:22:43;;;;;;;0.00;0.00;;;11.30;99.90;;;;;;5042193;28;20055;-83
2022/09/27 09:25:21;;;;;;;0.90;0.55;;;11.10;99.90;;;;;;5056455;28;20503;-82
2022/09/27 09:28:07;;;;;;;0.00;0.00;;;11.00;99.90;;;;;;5039755;28;20045;-83
2022/09/27 09:30:51;;;;;;;0.00;0.00;;;11.00;99.90;;;;;;4998908;28;20212;-83
2022/09/27 09:33:39;;;;;;;0.00;0.00;;;11.00;99.90;;;;;;4998996;28;20157;-83
2022/09/27 09:36:07;;;;;;;0.00;0.00;;;11.00;99.90;;;;;;4982699;28;20144;-83
2022/09/27 09:38:41;;;;;;;0.00;0.00;;;11.20;99.90;;;;;;4982751;28;20413;-83
2022/09/27 09:41:25;;;;;;;0.00;0.00;;;11.60;99.90;;;;;;4998399;28;20441;-82
2022/09/27 09:43:56;;;;;;;0.00;0.00;;;12.10;99.90;;;;;;4982093;28;20045;-83
2022/09/27 09:46:41;;;;;;;1.38;0.52;;;12.30;99.90;;;;;;4998690;28;20593;-83
2022/09/27 09:49:20;;;;;;;0.00;0.00;;;12.60;99.90;;;;;;4998489;28;20093;-83
2022/09/27 09:51:57;;;;;;;0.38;0.20;;;12.80;99.90;;;;;;4999257;28;20136;-82
2022/09/27 09:54:48;;;;;;;0.00;0.00;;;13.10;99.90;;;;;;4982437;28;20054;-82
2022/09/27 09:57:35;;;;;;;0.00;0.00;;;13.00;99.90;;;;;;4956124;28;20171;-82
2022/09/27 10:00:11;;;;;;;0.00;0.00;;;12.70;99.90;;;;;;4940797;29;20055;-82
2022/09/27 10:02:39;;;;;;;0.00;0.00;;;12.50;99.90;;;;;;4939993;28;20087;-82
2022/09/27 10:05:06;;;;;;;0.00;0.00;;;12.30;99.90;;;;;;4939635;29;20043;-82
2022/09/27 10:07:35;;;;;;;0.00;0.00;;;12.10;99.90;;;;;;4966387;28;20418;-82
2022/09/27 10:10:04;;;;;;;0.00;0.00;;;12.10;99.90;;;;;;5014595;28;20148;-81
2022/09/27 10:12:30;;;;;;;0.40;0.20;;;11.80;99.90;;;;;;4998294;28;20413;-81
2022/09/27 10:15:03;;;;;;;0.00;0.00;;;11.70;99.90;;;;;;5014489;28;20061;-81
2022/09/27 10:17:38;;;;;;;0.00;0.00;;;11.70;99.90;;;;;;4998204;28;20050;-81
2022/09/27 10:20:06;;;;;;;0.00;0.00;;;11.70;99.90;;;;;;5014472;28;20396;-81
2022/09/27 10:22:41;;;;;;;0.00;0.00;;;11.60;99.90;;;;;;5014142;28;20057;-81
2022/09/27 10:25:09;;;;;;;0.00;0.00;;;11.70;99.90;;;;;;4997954;28;20058;-81
2022/09/27 10:27:51;;;;;;;0.00;0.00;;;11.70;99.90;;;;;;4996374;28;20111;-83
2022/09/27 10:30:22;;;;;;;0.00;0.00;;;11.80;99.90;;;;;;4989459;28;20053;-83
2022/09/27 10:32:51;;;;;;;0.00;0.00;;;12.00;99.90;;;;;;4981315;28;20058;-82
2022/09/27 10:35:29;;;;;;;0.00;0.00;;;12.20;99.90;;;;;;5044646;28;20057;-83
2022/09/27 10:38:26;;;;;;;0.00;0.00;;;12.50;99.90;;;;;;5018012;28;20386;-83
2022/09/27 10:40:54;;;;;;;0.00;0.00;;;13.00;99.90;;;;;;5017873;28;20107;-83
2022/09/27 10:43:34;;;;;;;0.00;0.00;;;13.40;99.90;;;;;;5018610;28;20412;-83
2022/09/27 10:46:23;;;;;;;0.00;0.00;;;13.50;99.90;;;;;;5025716;28;20051;-81
2022/09/27 10:49:15;;;;;;;0.00;0.00;;;13.60;99.90;;;;;;5037480;28;20049;-82
2022/09/27 10:51:43;;;;;;;0.00;0.00;;;13.50;99.90;;;;;;5037535;28;20049;-83
2022/09/27 10:54:29;;;;;;;0.00;0.00;;;13.30;99.90;;;;;;5037831;28;20063;-89
2022/09/27 10:57:05;;;;;;;4.22;1.75;;;13.10;99.90;;;;;;5037863;28;20084;-81
2022/09/27 10:59:38;;;;;;;0.00;0.00;;;13.10;99.90;;;;;;5054006;28;20045;-81
2022/09/27 11:02:05;;;;;;;0.00;0.00;;;13.10;99.90;;;;;;5054471;28;20392;-81
2022/09/27 11:04:37;;;;;;;0.00;0.00;;;13.10;99.90;;;;;;5037944;28;20064;-81
2022/09/27 11:07:14;;;;;;;0.00;0.00;;;13.10;99.90;;;;;;5037388;28;20055;-82
2022/09/27 11:09:51;;;;;;;0.00;0.00;;;13.10;99.90;;;;;;5063746;28;20089;-82
2022/09/27 11:12:19;;;;;;;0.00;0.00;;;13.20;99.90;;;;;;5046132;28;20049;-81
2022/09/27 11:15:09;;;;;;;0.00;0.00;;;13.20;99.90;;;;;;5056531;28;20041;-82
2022/09/27 11:17:49;;;;;;;0.00;0.00;;;13.20;99.90;;;;;;5054447;28;20045;-82
2022/09/27 11:20:30;;;;;;;0.00;0.00;;;13.20;99.90;;;;;;5053772;28;20045;-82
2022/09/27 11:23:27;;;;;;;0.00;0.00;;;13.40;99.90;;;;;;5054036;28;20064;-82
2022/09/27 11:26:26;;;;;;;0.00;0.00;;;13.70;99.90;;;;;;5053884;28;20477;-82
2022/09/27 11:29:13;;;;;;;0.00;0.00;;;14.10;99.90;;;;;;5037055;28;20519;-82
2022/09/27 11:31:54;;;;;;;0.00;0.00;;;14.20;99.90;;;;;;5054257;28;20053;-82
2022/09/27 11:34:37;;;;;;;0.00;0.00;;;13.90;99.90;;;;;;5053883;28;20056;-82
2022/09/27 11:37:11;;;;;;;0.00;0.00;;;13.40;99.90;;;;;;5053794;28;20045;-88
2022/09/27 11:40:04;;;;;;;0.00;0.00;;;13.00;99.90;;;;;;5053815;28;20111;-89
2022/09/27 11:43:01;;;;;;;0.00;0.00;;;12.50;99.90;;;;;;5037111;28;20473;-83
2022/09/27 11:45:45;;;;;;;0.00;0.00;;;12.20;99.90;;;;;;5054022;28;20557;-84
2022/09/27 11:48:31;;;;;;;0.00;0.00;;;12.00;99.90;;;;;;5070002;28;20493;-84
2022/09/27 11:51:20;;;;;;;0.00;0.00;;;12.00;99.90;;;;;;5053575;28;20045;-84
2022/09/27 11:54:04;;;;;;;0.00;0.00;;;12.00;99.90;;;;;;5049415;28;20397;-84
2022/09/27 11:57:02;;;;;;;0.00;0.00;;;12.20;99.90;;;;;;5049513;28;20057;-83
2022/09/27 11:59:50;;;;;;;0.00;0.00;;;12.30;99.90;;;;;;5049442;28;20054;-83
2022/09/27 12:02:31;;;;;;;0.00;0.00;;;12.20;99.90;;;;;;5049455;28;20049;-83
2022/09/27 12:04:56;;;;;;;0.00;0.00;;;12.20;99.90;;;;;;5033112;28;20099;-83
2022/09/27 12:07:34;;;;;;;0.00;0.00;;;12.20;99.90;;;;;;5032989;28;20045;-83
2022/09/27 12:10:09;;;;;;;0.00;0.00;;;12.20;99.90;;;;;;5033370;28;20057;-82
2022/09/27 12:12:38;;;;;;;0.00;0.00;;;12.10;99.90;;;;;;5032892;28;20435;-82
2022/09/27 12:15:29;;;;;;;0.00;0.00;;;12.20;99.90;;;;;;5049667;28;20050;-82
2022/09/27 12:18:30;;;;;;;0.00;0.00;;;12.30;99.90;;;;;;5034008;28;20164;-82
2022/09/27 12:21:01;;;;;;;0.20;0.00;;;12.40;99.90;;;;;;5049308;28;20048;-82
2022/09/27 12:23:56;;;;;;;0.00;0.00;;;12.50;99.90;;;;;;5033213;28;20121;-82
2022/09/27 12:26:27;;;;;;;0.00;0.00;;;12.60;99.90;;;;;;5050769;28;20052;-82
2022/09/27 12:28:55;;;;;;;0.00;0.00;;;12.60;99.90;;;;;;5053665;28;20071;-82
2022/09/27 12:31:28;;;;;;;0.00;0.00;;;12.60;99.90;;;;;;5053640;28;20061;-82
2022/09/27 12:34:04;;;;;;;0.00;0.00;;;12.60;99.90;;;;;;5021103;28;20052;-82
2022/09/27 12:36:41;;;;;;;0.00;0.00;;;12.60;99.90;;;;;;5053871;28;20045;-82
2022/09/27 12:39:15;;;;;;;0.00;0.00;;;12.60;99.90;;;;;;5036490;28;20430;-83
2022/09/27 12:41:48;;;;;;;0.00;0.00;;;12.60;99.90;;;;;;5053043;28;20132;-82
2022/09/27 12:44:13;;;;;;;0.00;0.00;;;12.70;99.90;;;;;;5036209;28;20041;-82
2022/09/27 12:47:18;;;;;;;0.00;0.00;;;12.90;99.90;;;;;;5053228;28;20052;-83
2022/09/27 12:50:05;;;;;;;0.00;0.00;;;12.90;99.90;;;;;;4983116;28;20445;-82
2022/09/27 12:52:34;;;;;;;0.00;0.00;;;12.90;99.90;;;;;;4999409;28;20060;-82
2022/09/27 12:55:25;;;;;;;0.00;0.00;;;13.00;99.90;;;;;;4999349;28;20089;-83
2022/09/27 12:58:09;;;;;;;0.00;0.00;;;13.10;99.90;;;;;;4999877;28;20462;-82
2022/09/27 13:00:59;;;;;;;0.00;0.00;;;13.10;99.90;;;;;;4991912;28;20522;-82
2022/09/27 13:03:42;;;;;;;0.52;0.32;;;13.20;99.90;;;;;;5007492;28;20041;-82
2022/09/27 13:06:39;;;;;;;0.00;0.00;;;13.30;99.90;;;;;;5000675;28;20052;-82
2022/09/27 13:09:18;;;;;;;0.00;0.00;;;13.30;99.90;;;;;;4999687;28;20045;-82
2022/09/27 13:12:15;;;;;;;0.00;0.00;;;13.30;99.90;;;;;;4999380;28;20148;-82
2022/09/27 13:15:12;;;;;;;0.45;0.22;;;13.40;99.90;;;;;;4982657;28;20494;-83
2022/09/27 13:17:39;;;;;;;0.00;0.00;;;13.30;99.90;;;;;;4999612;28;20129;-82
2022/09/27 13:20:26;;;;;;;0.00;0.00;;;13.30;99.90;;;;;;4999309;28;20066;-83
2022/09/27 13:22:53;;;;;;;0.00;0.00;;;13.30;99.90;;;;;;4982640;28;20057;-82
2022/09/27 13:25:46;;;;;;;0.00;0.00;;;13.30;99.90;;;;;;4982854;28;20046;-82
2022/09/27 13:28:34;;;;;;;0.38;0.10;;;13.50;99.90;;;;;;5019266;28;20045;-83
2022/09/27 13:31:04;;;;;;;0.00;0.00;;;13.60;99.90;;;;;;5052852;28;20053;-82
2022/09/27 13:33:33;;;;;;;0.00;0.00;;;13.70;99.90;;;;;;5052343;28;20436;-82